Ana Sayfa
METAR-TAF:

METAR-TAF

Havaalanları :

Boise, Idaho, Amerika Birleşik Devletleri

Enlem: 43-34-00N, Boylam: 116-14-26W, yükseklik: 871 m

Güncel hava durumu gözlemi

Rapor saat 03:53 UTC de 49 dakika önce yapıldı.
Sakin rüzgar
Sıcaklık 3°C
Nem 93%
Basınç 1016 hPa
Görüş mesafesi: 11.3 km
1900 ft yükseklikte parçalı bulutlu
2800 ft yükseklikte parçalı bulutlu
8500 ft yükseklikte çok bulutlu

METAR: KBOI 220353Z 00000KT 7SM SCT019 SCT028 OVC085 03/02 A2999 RMK AO2 RAE11UPB00E10 SLP166 P0000 T00280017

Saat: 21:42 (04:42 UTC)

Tahmin

Rapor saat 23:20 UTC de 5 saat ve 22 dakika önce yapıldı.
Ayın 22'si saat 00 UTC'den ayın 22'si saat 24 UTC'ye kadar geçerli Tahmin
Rüzgar güneydoğudan 10 kt
Görüş mesafesi: 9.7 km
5000 ft yükseklikte çok bulutlu
hafif sağanak yağmurlar
Ayın 22'si saat 0300 UTC'den
Rüzgar değişken yönden 4 kt
Görüş mesafesi: 10 km
6000 ft yükseklikte parçalı çok bulutlu

TAF: KBOI 212320Z 2200/2224 13010KT 6SM -SHRA OVC050 FM220300 VRB04KT P6SM BKN060

4.000'den fazla havaalanı için hava durumu gözlemleri ve tahminleri (METAR ve TAF raporları).

Kullanılabilir istasyonlar harita üzerinde sarı ve kırmızı noktalarla gösterilir.

İstasyonun adını görmek için fareyi noktanın üzerinde gezdirin.

Sonrasında hava gözlem ve tahminlerini görmek için tıklayın.

Haritayı değiştirmek için: yaklaştırmak için siyah artı işaretli yeşil düğmeye ve uzaklaştırmak için de eksi işaretli düğmeye hızla tıklayın; bitişik haritalar için yeşil okları kullanın.


METAR-TAF: